createdAt,value
2022-11-09T00:00:45.576Z,2.00
2022-11-09T00:03:13.045Z,2.05
2022-11-09T00:05:41.086Z,2.05
2022-11-09T00:08:09.638Z,2.53
2022-11-09T00:10:37.544Z,2.10
2022-11-09T00:13:05.240Z,2.20
2022-11-09T00:15:32.510Z,2.10
2022-11-09T00:18:03.299Z,2.13
2022-11-09T00:20:30.938Z,2.20
2022-11-09T00:22:58.233Z,2.33
2022-11-09T00:25:25.460Z,2.05
2022-11-09T00:27:53.440Z,2.40
2022-11-09T00:30:20.806Z,2.28
2022-11-09T00:32:48.311Z,2.75
2022-11-09T00:35:15.600Z,2.35
2022-11-09T00:37:42.849Z,2.63
2022-11-09T00:40:10.864Z,3.25
2022-11-09T00:42:38.073Z,2.35
2022-11-09T00:45:05.503Z,2.20
2022-11-09T00:47:32.746Z,2.30
2022-11-09T00:49:59.937Z,2.47
2022-11-09T00:52:27.177Z,2.05
2022-11-09T00:54:54.374Z,1.98
2022-11-09T00:57:21.580Z,2.30
2022-11-09T00:59:48.925Z,2.20
2022-11-09T01:02:16.135Z,2.60
2022-11-09T01:04:43.366Z,2.35
2022-11-09T01:07:10.642Z,2.42
2022-11-09T01:09:38.421Z,2.38
2022-11-09T01:12:05.731Z,2.67
2022-11-09T01:14:32.981Z,2.50
2022-11-09T01:17:00.182Z,2.92
2022-11-09T01:19:27.417Z,2.20
2022-11-09T01:21:54.678Z,2.60
2022-11-09T01:24:21.895Z,2.67
2022-11-09T01:26:49.117Z,2.38
2022-11-09T01:29:16.344Z,2.45
2022-11-09T01:31:43.646Z,2.45
2022-11-09T01:34:10.974Z,2.20
2022-11-09T01:36:38.175Z,2.33
2022-11-09T01:39:05.575Z,2.50
2022-11-09T01:41:32.935Z,2.42
2022-11-09T01:44:18.928Z,2.63
2022-11-09T01:46:53.385Z,2.80
2022-11-09T01:49:42.359Z,2.75
2022-11-09T01:52:24.438Z,2.60
2022-11-09T01:54:57.582Z,2.50
2022-11-09T01:57:34.822Z,2.63
2022-11-09T02:00:07.457Z,2.55
2022-11-09T02:02:35.604Z,2.80
2022-11-09T02:05:10.877Z,2.25
2022-11-09T02:07:38.601Z,2.42
2022-11-09T02:10:30.827Z,2.70
2022-11-09T02:12:59.684Z,2.10
2022-11-09T02:15:27.325Z,2.50
2022-11-09T02:17:55.430Z,2.47
2022-11-09T02:20:23.123Z,2.92
2022-11-09T02:22:50.429Z,2.55
2022-11-09T02:25:18.477Z,2.47
2022-11-09T02:27:46.129Z,2.92
2022-11-09T02:30:13.930Z,2.90
2022-11-09T02:32:41.317Z,2.67
2022-11-09T02:35:09.505Z,2.95
2022-11-09T02:37:48.551Z,2.83
2022-11-09T02:40:25.354Z,2.55
2022-11-09T02:42:52.683Z,2.33
2022-11-09T02:45:19.949Z,2.22
2022-11-09T02:47:47.127Z,2.38
2022-11-09T02:50:14.349Z,2.40
2022-11-09T02:52:41.608Z,2.53
2022-11-09T02:55:09.102Z,2.83
2022-11-09T02:57:36.348Z,2.50
2022-11-09T03:00:04.051Z,2.65
2022-11-09T03:02:31.386Z,2.53
2022-11-09T03:04:58.651Z,2.28
2022-11-09T03:07:26.764Z,2.38
2022-11-09T03:09:54.194Z,2.10
2022-11-09T03:12:30.296Z,1.95
2022-11-09T03:15:03.164Z,2.38
2022-11-09T03:17:31.553Z,2.35
2022-11-09T03:19:58.811Z,2.33
2022-11-09T03:22:26.018Z,2.25
2022-11-09T03:24:53.276Z,2.20
2022-11-09T03:27:20.504Z,2.13
2022-11-09T03:29:47.739Z,2.17
2022-11-09T03:32:14.945Z,2.03
2022-11-09T03:34:42.176Z,2.13
2022-11-09T03:37:09.762Z,2.17
2022-11-09T03:39:37.001Z,2.58
2022-11-09T03:42:04.276Z,2.38
2022-11-09T03:44:31.462Z,2.40
2022-11-09T03:46:58.728Z,2.20
2022-11-09T03:49:25.938Z,2.28
2022-11-09T03:51:53.133Z,2.22
2022-11-09T03:54:20.346Z,2.30
2022-11-09T03:56:47.526Z,2.67
2022-11-09T03:59:14.944Z,2.50
2022-11-09T04:01:42.272Z,2.40
2022-11-09T04:04:09.563Z,2.85
2022-11-09T04:06:36.919Z,2.25
2022-11-09T04:09:04.286Z,2.40
2022-11-09T04:11:31.616Z,2.60
2022-11-09T04:13:58.868Z,1.90
2022-11-09T04:16:26.216Z,1.77
2022-11-09T04:18:53.487Z,2.47
2022-11-09T04:21:23.872Z,2.28
2022-11-09T04:23:51.438Z,2.28
2022-11-09T04:26:18.634Z,2.50
2022-11-09T04:28:45.927Z,2.17
2022-11-09T04:31:13.177Z,2.40
2022-11-09T04:33:40.423Z,2.53
2022-11-09T04:36:07.980Z,2.40
2022-11-09T04:38:36.510Z,2.50
2022-11-09T04:41:04.726Z,2.45
2022-11-09T04:43:31.995Z,2.65
2022-11-09T04:46:04.143Z,2.42
2022-11-09T04:48:32.682Z,2.47
2022-11-09T04:51:08.487Z,2.63
2022-11-09T04:53:36.367Z,2.55
2022-11-09T04:56:04.532Z,2.65
2022-11-09T04:58:31.924Z,2.72
2022-11-09T05:01:06.927Z,2.53
2022-11-09T05:03:34.429Z,2.65
2022-11-09T05:06:01.817Z,2.05
2022-11-09T05:08:29.079Z,2.80
2022-11-09T05:10:59.299Z,2.17
2022-11-09T05:13:26.683Z,2.50
2022-11-09T05:15:53.978Z,2.67
2022-11-09T05:18:21.246Z,2.53
2022-11-09T05:20:48.796Z,2.70
2022-11-09T05:23:34.489Z,2.72
2022-11-09T05:26:01.741Z,3.33
2022-11-09T05:28:28.979Z,2.92
2022-11-09T05:30:56.260Z,3.40
2022-11-09T05:33:23.607Z,2.90
2022-11-09T05:35:50.975Z,2.63
2022-11-09T05:38:18.224Z,2.65
2022-11-09T05:40:47.569Z,2.45
2022-11-09T05:43:14.964Z,2.80
2022-11-09T05:45:43.952Z,3.13
2022-11-09T05:50:41.254Z,2.47
2022-11-09T05:53:08.813Z,3.00
2022-11-09T05:55:36.225Z,3.60
2022-11-09T05:58:03.684Z,3.03
2022-11-09T06:00:30.952Z,3.08
2022-11-09T06:03:06.037Z,3.20
2022-11-09T06:05:34.333Z,3.17
2022-11-09T06:08:06.529Z,2.70
2022-11-09T06:10:33.839Z,3.00
2022-11-09T06:13:01.094Z,2.63
2022-11-09T06:15:28.427Z,2.40
2022-11-09T06:18:00.486Z,3.08
2022-11-09T06:20:28.473Z,3.28
2022-11-09T06:23:02.469Z,3.28
2022-11-09T06:25:31.817Z,2.72
2022-11-09T06:27:59.230Z,2.50
2022-11-09T06:30:26.465Z,2.83
2022-11-09T06:32:59.289Z,2.97
2022-11-09T06:35:26.556Z,2.63
2022-11-09T06:38:00.651Z,3.00
2022-11-09T06:40:28.356Z,3.47
2022-11-09T06:43:01.818Z,2.88
2022-11-09T06:45:29.786Z,3.05
2022-11-09T06:48:01.763Z,3.05
2022-11-09T06:50:31.114Z,3.20
2022-11-09T06:55:29.971Z,3.40
2022-11-09T06:57:57.500Z,3.75
2022-11-09T07:00:26.092Z,3.15
2022-11-09T07:02:53.603Z,3.28
2022-11-09T07:05:21.338Z,3.45
2022-11-09T07:07:48.847Z,3.65
2022-11-09T07:10:16.578Z,4.47
2022-11-09T07:12:43.903Z,3.53
2022-11-09T07:15:11.967Z,3.78
2022-11-09T07:17:39.875Z,3.95
2022-11-09T07:20:08.261Z,3.92
2022-11-09T07:22:39.285Z,4.60
2022-11-09T07:25:11.235Z,4.20
2022-11-09T07:27:38.424Z,3.92
2022-11-09T07:30:05.974Z,3.78
2022-11-09T07:35:24.274Z,3.80
2022-11-09T07:37:51.490Z,4.43
2022-11-09T07:40:18.938Z,3.60
2022-11-09T07:42:46.170Z,3.95
2022-11-09T07:45:13.447Z,4.50
2022-11-09T07:47:40.616Z,3.90
2022-11-09T07:50:07.914Z,3.85
2022-11-09T07:52:35.084Z,3.92
2022-11-09T07:55:02.251Z,4.40
2022-11-09T07:57:29.429Z,3.75
2022-11-09T07:59:56.610Z,3.72
2022-11-09T08:02:23.830Z,3.95
2022-11-09T08:04:51.089Z,4.22
2022-11-09T08:07:18.259Z,4.25
2022-11-09T08:09:45.443Z,4.07
2022-11-09T08:12:12.623Z,4.43
2022-11-09T08:14:39.804Z,4.13
2022-11-09T08:17:06.988Z,4.03
2022-11-09T08:19:34.226Z,4.85
2022-11-09T08:22:01.474Z,5.05
2022-11-09T08:24:28.673Z,3.92
2022-11-09T08:26:55.849Z,3.40
2022-11-09T08:29:23.093Z,3.95
2022-11-09T08:31:51.415Z,4.03
2022-11-09T08:34:18.722Z,4.25
2022-11-09T08:36:45.898Z,4.15
2022-11-09T08:39:13.086Z,3.83
2022-11-09T08:41:40.261Z,3.83
2022-11-09T08:44:07.419Z,3.40
2022-11-09T08:46:39.916Z,3.47
2022-11-09T08:49:08.410Z,4.15
2022-11-09T08:51:35.659Z,4.30
2022-11-09T08:54:02.882Z,4.10
2022-11-09T08:56:30.104Z,5.05
2022-11-09T08:58:57.316Z,3.72
2022-11-09T09:01:25.415Z,4.00
2022-11-09T09:03:52.707Z,4.38
2022-11-09T09:06:19.944Z,3.78
2022-11-09T09:08:47.151Z,4.03
2022-11-09T09:11:15.241Z,3.78
2022-11-09T09:13:43.733Z,4.20
2022-11-09T09:16:15.397Z,4.32
2022-11-09T09:18:43.102Z,3.90
2022-11-09T09:21:10.792Z,4.28
2022-11-09T09:23:38.117Z,4.20
2022-11-09T09:26:05.591Z,4.03
2022-11-09T09:28:33.026Z,4.63
2022-11-09T09:31:00.862Z,4.35
2022-11-09T09:33:28.673Z,3.88
2022-11-09T09:35:57.592Z,4.15
2022-11-09T09:38:25.366Z,3.90
2022-11-09T09:41:03.774Z,3.92
2022-11-09T09:43:30.947Z,3.80
2022-11-09T09:45:59.713Z,3.85
2022-11-09T09:48:26.853Z,3.75
2022-11-09T09:50:56.578Z,4.50
2022-11-09T09:53:47.513Z,4.13
2022-11-09T09:56:24.394Z,4.20
2022-11-09T09:59:07.110Z,4.05
2022-11-09T10:01:42.637Z,3.53
2022-11-09T10:04:17.274Z,4.45
2022-11-09T10:06:50.486Z,3.88
2022-11-09T10:09:53.547Z,4.30
2022-11-09T10:12:29.558Z,4.00
2022-11-09T10:15:15.935Z,4.40
2022-11-09T10:17:56.383Z,4.05
2022-11-09T10:20:36.171Z,3.58
2022-11-09T10:23:38.498Z,4.05
2022-11-09T10:26:19.293Z,4.05
2022-11-09T10:29:15.741Z,3.83
2022-11-09T10:31:45.549Z,3.30
2022-11-09T10:34:21.839Z,3.58
2022-11-09T10:36:58.409Z,4.05
2022-11-09T10:39:26.806Z,4.40
2022-11-09T10:41:54.103Z,3.90
2022-11-09T10:44:21.551Z,3.78
2022-11-09T10:47:08.990Z,3.47
2022-11-09T10:49:36.957Z,3.50
2022-11-09T10:52:05.297Z,2.88
2022-11-09T10:54:35.391Z,2.70
2022-11-09T10:57:16.700Z,3.25
2022-11-09T10:59:56.197Z,2.55
2022-11-09T11:02:26.283Z,2.40
2022-11-09T11:05:16.446Z,2.63
2022-11-09T11:07:43.714Z,2.33
2022-11-09T11:10:21.940Z,2.78
2022-11-09T11:13:17.692Z,2.40
2022-11-09T11:15:45.174Z,2.58
2022-11-09T11:18:19.997Z,2.17
2022-11-09T11:20:47.461Z,2.13
2022-11-09T11:23:20.713Z,2.05
2022-11-09T11:25:57.034Z,2.47
2022-11-09T11:28:38.548Z,2.30
2022-11-09T11:31:13.972Z,2.50
2022-11-09T11:33:41.419Z,2.40
2022-11-09T11:36:26.562Z,2.40
2022-11-09T11:39:13.808Z,1.73
2022-11-09T11:41:53.400Z,2.60
2022-11-09T11:44:29.711Z,2.35
2022-11-09T11:47:20.614Z,2.10
2022-11-09T11:50:20.896Z,1.70
2022-11-09T11:53:06.817Z,2.38
2022-11-09T11:56:01.640Z,2.10
2022-11-09T11:58:57.003Z,2.17
2022-11-09T12:01:38.585Z,1.80
2022-11-09T12:04:53.127Z,2.15
2022-11-09T12:07:30.503Z,1.90
2022-11-09T12:10:28.841Z,2.38
2022-11-09T12:13:01.810Z,1.70
2022-11-09T12:16:07.712Z,1.73
2022-11-09T12:18:53.239Z,1.85
2022-11-09T12:21:31.452Z,1.92
2022-11-09T12:24:18.192Z,1.80
2022-11-09T12:27:30.966Z,1.83
2022-11-09T12:30:15.156Z,1.83
2022-11-09T12:32:44.746Z,2.03
2022-11-09T12:35:15.252Z,1.70
2022-11-09T12:38:07.912Z,2.03
2022-11-09T12:40:39.588Z,1.92
2022-11-09T12:43:19.997Z,1.75
2022-11-09T12:45:48.564Z,1.70
2022-11-09T12:48:31.036Z,1.90
2022-11-09T12:50:59.980Z,1.77
2022-11-09T12:53:36.957Z,1.63
2022-11-09T12:56:25.828Z,2.45
2022-11-09T12:58:53.358Z,1.90
2022-11-09T13:01:26.381Z,1.63
2022-11-09T13:03:55.717Z,1.85
2022-11-09T13:09:04.992Z,1.55
2022-11-09T13:11:40.905Z,1.55
2022-11-09T13:14:30.148Z,1.33
2022-11-09T13:16:59.724Z,1.77
2022-11-09T13:19:36.044Z,1.50
2022-11-09T13:22:16.108Z,1.70
2022-11-09T13:25:00.774Z,2.08
2022-11-09T13:27:39.989Z,2.00
2022-11-09T13:33:10.551Z,1.80
2022-11-09T13:35:40.755Z,1.52
2022-11-09T13:38:29.047Z,1.40
2022-11-09T13:41:00.868Z,1.43
2022-11-09T13:43:37.572Z,1.80
2022-11-09T13:46:14.605Z,1.40
2022-11-09T13:48:42.671Z,1.88
2022-11-09T13:51:14.528Z,1.50
2022-11-09T13:53:59.460Z,1.35
2022-11-09T13:56:41.136Z,1.60
2022-11-09T13:59:14.756Z,1.50
2022-11-09T14:01:56.454Z,1.42
2022-11-09T14:04:27.676Z,1.80
2022-11-09T14:07:01.578Z,2.08
2022-11-09T14:09:30.846Z,1.77
2022-11-09T14:14:42.834Z,1.75
2022-11-09T14:17:31.555Z,1.77
2022-11-09T14:20:31.386Z,1.70
2022-11-09T14:22:58.622Z,1.73
2022-11-09T14:25:25.993Z,1.80
2022-11-09T14:27:57.865Z,1.50
2022-11-09T14:30:28.181Z,1.95
2022-11-09T14:32:56.516Z,1.80
2022-11-09T14:35:27.576Z,1.97
2022-11-09T14:37:55.800Z,1.92
2022-11-09T14:40:31.344Z,2.17
2022-11-09T14:43:39.230Z,2.25
2022-11-09T14:46:14.729Z,1.90
2022-11-09T14:48:57.535Z,2.28
2022-11-09T14:51:32.827Z,2.72
2022-11-09T14:54:01.344Z,2.47
2022-11-09T14:56:30.454Z,1.90
2022-11-09T14:58:58.136Z,1.95
2022-11-09T15:01:26.953Z,1.90
2022-11-09T15:04:19.957Z,1.85
2022-11-09T15:06:56.944Z,2.00
2022-11-09T15:09:44.739Z,2.53
2022-11-09T15:12:15.858Z,2.70
2022-11-09T15:14:47.517Z,2.38
2022-11-09T15:17:17.679Z,2.25
2022-11-09T15:19:56.849Z,2.33
2022-11-09T15:25:31.926Z,2.40
2022-11-09T15:33:19.160Z,2.50
2022-11-09T15:35:58.609Z,2.40
2022-11-09T15:38:37.684Z,2.35
2022-11-09T15:41:13.363Z,2.95
2022-11-09T15:43:44.731Z,2.58
2022-11-09T15:46:17.911Z,2.50
2022-11-09T15:48:46.374Z,3.03
2022-11-09T15:51:15.215Z,2.28
2022-11-09T15:53:42.660Z,2.70
2022-11-09T15:56:28.019Z,2.40
2022-11-09T15:58:55.271Z,2.92
2022-11-09T16:01:22.607Z,3.15
2022-11-09T16:03:49.868Z,2.70
2022-11-09T16:06:19.088Z,2.90
2022-11-09T16:11:14.210Z,2.72
2022-11-09T16:13:41.534Z,2.38
2022-11-09T16:16:10.582Z,2.28
2022-11-09T16:18:37.921Z,2.58
2022-11-09T16:21:16.187Z,2.58
2022-11-09T16:23:44.022Z,2.50
2022-11-09T16:26:16.531Z,2.35
2022-11-09T16:28:44.336Z,3.08
2022-11-09T16:31:12.797Z,2.58
2022-11-09T16:33:40.613Z,2.60
2022-11-09T16:36:15.362Z,2.45
2022-11-09T16:38:49.264Z,2.65
2022-11-09T16:41:18.004Z,2.72
2022-11-09T16:43:46.785Z,2.85
2022-11-09T16:46:18.072Z,2.40
2022-11-09T16:48:45.383Z,3.00
2022-11-09T16:51:12.571Z,2.50
2022-11-09T16:53:39.797Z,2.58
2022-11-09T16:56:07.119Z,2.67
2022-11-09T16:58:34.325Z,3.17
2022-11-09T17:01:11.630Z,2.83
2022-11-09T17:03:40.215Z,2.97
2022-11-09T17:06:18.028Z,2.75
2022-11-09T17:08:45.503Z,3.00
2022-11-09T17:11:15.727Z,3.00
2022-11-09T17:13:43.233Z,2.92
2022-11-09T17:16:12.753Z,3.50
2022-11-09T17:18:43.139Z,3.22
2022-11-09T17:21:14.489Z,3.10
2022-11-09T17:23:42.873Z,3.35
2022-11-09T17:26:15.703Z,2.90
2022-11-09T17:28:44.134Z,3.03
2022-11-09T17:31:22.459Z,2.80
2022-11-09T17:33:49.783Z,3.33
2022-11-09T17:36:29.721Z,3.45
2022-11-09T17:39:06.576Z,3.20
2022-11-09T17:41:35.601Z,3.35
2022-11-09T17:44:06.136Z,3.33
2022-11-09T17:46:34.627Z,4.22
2022-11-09T17:49:10.280Z,3.70
2022-11-09T17:51:39.092Z,3.70
2022-11-09T17:54:06.788Z,2.80
2022-11-09T17:56:34.131Z,3.42
2022-11-09T17:59:04.565Z,3.65
2022-11-09T18:01:36.369Z,3.80
2022-11-09T18:04:07.069Z,3.75
2022-11-09T18:06:34.288Z,3.33
2022-11-09T18:09:39.218Z,2.80
2022-11-09T18:11:52.004Z,2.72
2022-11-09T18:14:19.500Z,3.45
2022-11-09T18:16:46.967Z,3.58
2022-11-09T18:19:14.271Z,2.72
2022-11-09T18:21:41.507Z,4.07
2022-11-09T18:24:11.618Z,4.50
2022-11-09T18:26:38.802Z,2.70
2022-11-09T18:29:06.008Z,2.40
2022-11-09T18:31:33.233Z,2.78
2022-11-09T18:34:00.482Z,2.22
2022-11-09T18:36:27.915Z,2.20
2022-11-09T18:38:55.998Z,2.53
2022-11-09T18:41:24.735Z,3.88
2022-11-09T18:43:53.919Z,8.45
2022-11-09T18:46:22.018Z,7.63
2022-11-09T18:48:53.188Z,5.18
2022-11-09T18:51:20.868Z,5.65
2022-11-09T18:53:48.628Z,5.20
2022-11-09T18:56:19.002Z,5.03
2022-11-09T18:58:46.851Z,4.95
2022-11-09T19:01:14.930Z,8.88
2022-11-09T19:03:42.274Z,4.20
2022-11-09T19:06:13.201Z,4.22
2022-11-09T19:08:58.817Z,3.13
2022-11-09T19:11:26.435Z,3.47
2022-11-09T19:13:54.574Z,8.45
2022-11-09T19:16:22.225Z,6.97
2022-11-09T19:18:49.869Z,4.65
2022-11-09T19:21:34.561Z,5.05
2022-11-09T19:24:01.826Z,4.28
2022-11-09T19:26:29.243Z,5.05
2022-11-09T19:28:56.463Z,5.05
2022-11-09T19:31:24.440Z,4.72
2022-11-09T19:33:52.310Z,4.70
2022-11-09T19:36:30.192Z,5.05
2022-11-09T19:38:58.531Z,4.88
2022-11-09T19:41:26.161Z,4.50
2022-11-09T19:43:55.836Z,5.72
2022-11-09T19:46:23.203Z,4.68
2022-11-09T19:48:50.374Z,4.75
2022-11-09T19:51:18.540Z,4.93
2022-11-09T19:53:50.501Z,5.05
2022-11-09T19:56:18.489Z,4.50
2022-11-09T19:58:50.128Z,5.13
2022-11-09T20:01:18.345Z,5.57
2022-11-09T20:03:50.792Z,4.88
2022-11-09T20:06:18.726Z,5.18
2022-11-09T20:08:47.310Z,4.90
2022-11-09T20:11:36.828Z,5.55
2022-11-09T20:14:05.156Z,4.97
2022-11-09T20:16:33.102Z,4.65
2022-11-09T20:19:01.480Z,5.55
2022-11-09T20:21:28.762Z,4.87
2022-11-09T20:23:55.998Z,5.70
2022-11-09T20:26:23.657Z,6.38
2022-11-09T20:28:53.328Z,6.18
2022-11-09T20:31:22.094Z,6.72
2022-11-09T20:33:50.042Z,7.03
2022-11-09T20:36:18.952Z,6.90
2022-11-09T20:38:47.007Z,6.25
2022-11-09T20:41:14.287Z,7.22
2022-11-09T20:43:41.787Z,6.57
2022-11-09T20:46:20.705Z,7.05
2022-11-09T20:48:56.153Z,6.70
2022-11-09T20:51:24.758Z,5.82
2022-11-09T20:53:52.243Z,6.37
2022-11-09T20:56:20.633Z,8.00
2022-11-09T20:58:48.222Z,6.90
2022-11-09T21:01:21.201Z,5.70
2022-11-09T21:03:52.887Z,4.85
2022-11-09T21:06:20.981Z,4.82
2022-11-09T21:08:50.170Z,4.47
2022-11-09T21:11:17.882Z,3.10
2022-11-09T21:13:51.990Z,3.40
2022-11-09T21:16:21.612Z,2.95
2022-11-09T21:18:52.476Z,2.72
2022-11-09T21:21:24.318Z,2.60
2022-11-09T21:24:10.371Z,2.90
2022-11-09T21:26:56.200Z,2.38
2022-11-09T21:29:43.581Z,2.05
2022-11-09T21:32:12.036Z,2.20
2022-11-09T21:34:39.429Z,2.63
2022-11-09T21:37:06.728Z,2.10
2022-11-09T21:39:33.946Z,2.53
2022-11-09T21:42:02.437Z,2.08
2022-11-09T21:44:33.605Z,2.47
2022-11-09T21:47:01.617Z,2.13
2022-11-09T21:49:29.116Z,1.92
2022-11-09T21:51:56.893Z,2.78
2022-11-09T21:54:24.464Z,2.00
2022-11-09T21:56:52.292Z,2.00
2022-11-09T21:59:19.574Z,1.73
2022-11-09T22:01:48.160Z,2.03
2022-11-09T22:04:15.464Z,1.80
2022-11-09T22:06:43.562Z,1.75
2022-11-09T22:09:16.653Z,1.50
2022-11-09T22:12:02.920Z,1.75
2022-11-09T22:15:08.542Z,1.40
2022-11-09T22:17:35.786Z,1.42
2022-11-09T22:20:21.643Z,1.80
2022-11-09T22:22:48.833Z,1.70
2022-11-09T22:25:16.052Z,2.03
2022-11-09T22:27:46.279Z,1.75
2022-11-09T22:30:13.892Z,1.90
2022-11-09T22:32:41.209Z,1.70
2022-11-09T22:35:08.741Z,1.52
2022-11-09T22:37:36.476Z,1.55
2022-11-09T22:40:03.680Z,1.80
2022-11-09T22:42:30.860Z,1.65
2022-11-09T22:44:58.069Z,1.88
2022-11-09T22:47:25.276Z,1.75
2022-11-09T22:49:52.445Z,1.77
2022-11-09T22:52:19.657Z,1.80
2022-11-09T22:54:46.821Z,1.42
2022-11-09T22:57:14.007Z,1.83
2022-11-09T22:59:41.617Z,1.60
2022-11-09T23:02:08.977Z,1.38
2022-11-09T23:04:36.384Z,1.60
2022-11-09T23:07:03.587Z,1.63
2022-11-09T23:09:37.290Z,1.40
2022-11-09T23:12:05.865Z,1.70
2022-11-09T23:14:51.779Z,1.60
2022-11-09T23:17:37.303Z,1.60
2022-11-09T23:20:05.084Z,1.55
2022-11-09T23:22:35.203Z,1.67
2022-11-09T23:25:20.948Z,1.48
2022-11-09T23:27:53.669Z,1.55
2022-11-09T23:30:21.267Z,1.60
2022-11-09T23:32:48.587Z,1.60
2022-11-09T23:35:16.007Z,1.95
2022-11-09T23:37:43.215Z,1.88
2022-11-09T23:40:11.273Z,1.70
2022-11-09T23:42:38.517Z,1.77
2022-11-09T23:45:07.578Z,1.67
2022-11-09T23:47:34.792Z,1.40
2022-11-09T23:50:02.154Z,1.73
2022-11-09T23:52:29.349Z,1.40
2022-11-09T23:54:56.512Z,1.73
2022-11-09T23:57:23.731Z,1.85
2022-11-09T23:59:50.915Z,2.00
